sensor_id;sensor_type;location;lat;lon;timestamp;temperature;humidity
72114;SHT31;59989;46.220;19.888;2023-05-29T00:02:11;16.93;84.17
72114;SHT31;59989;46.220;19.888;2023-05-29T00:05:14;16.90;85.30
72114;SHT31;59989;46.220;19.888;2023-05-29T00:08:17;16.84;86.63
72114;SHT31;59989;46.220;19.888;2023-05-29T00:11:20;16.72;87.51
72114;SHT31;59989;46.220;19.888;2023-05-29T00:14:23;16.63;88.71
72114;SHT31;59989;46.220;19.888;2023-05-29T00:17:26;16.63;88.29
72114;SHT31;59989;46.220;19.888;2023-05-29T00:20:28;16.63;88.48
72114;SHT31;59989;46.220;19.888;2023-05-29T00:23:31;16.63;88.23
72114;SHT31;59989;46.220;19.888;2023-05-29T00:26:34;16.56;88.06
72114;SHT31;59989;46.220;19.888;2023-05-29T00:29:37;16.53;88.31
72114;SHT31;59989;46.220;19.888;2023-05-29T00:32:43;16.51;88.98
72114;SHT31;59989;46.220;19.888;2023-05-29T00:35:46;16.44;88.25
72114;SHT31;59989;46.220;19.888;2023-05-29T00:38:48;16.45;87.89
72114;SHT31;59989;46.220;19.888;2023-05-29T00:41:51;16.42;88.97
72114;SHT31;59989;46.220;19.888;2023-05-29T00:44:53;16.40;89.33
72114;SHT31;59989;46.220;19.888;2023-05-29T00:47:56;16.31;89.80
72114;SHT31;59989;46.220;19.888;2023-05-29T00:50:59;16.28;89.35
72114;SHT31;59989;46.220;19.888;2023-05-29T00:54:02;16.26;89.23
72114;SHT31;59989;46.220;19.888;2023-05-29T00:57:06;16.20;89.51
72114;SHT31;59989;46.220;19.888;2023-05-29T01:00:09;16.18;89.66
72114;SHT31;59989;46.220;19.888;2023-05-29T01:03:18;16.10;89.75
72114;SHT31;59989;46.220;19.888;2023-05-29T01:06:22;16.08;89.67
72114;SHT31;59989;46.220;19.888;2023-05-29T01:09:25;16.04;90.17
72114;SHT31;59989;46.220;19.888;2023-05-29T01:12:47;16.04;90.61
72114;SHT31;59989;46.220;19.888;2023-05-29T01:15:58;16.05;90.60
72114;SHT31;59989;46.220;19.888;2023-05-29T01:29:00;16.03;91.76
72114;SHT31;59989;46.220;19.888;2023-05-29T01:32:05;16.05;91.59
72114;SHT31;59989;46.220;19.888;2023-05-29T01:35:08;16.03;91.35
72114;SHT31;59989;46.220;19.888;2023-05-29T01:38:11;16.05;91.50
72114;SHT31;59989;46.220;19.888;2023-05-29T01:41:15;16.07;91.40
72114;SHT31;59989;46.220;19.888;2023-05-29T01:44:18;16.05;91.36
72114;SHT31;59989;46.220;19.888;2023-05-29T01:47:22;16.04;91.27
72114;SHT31;59989;46.220;19.888;2023-05-29T01:50:27;16.04;91.37
72114;SHT31;59989;46.220;19.888;2023-05-29T01:53:31;16.03;91.09
72114;SHT31;59989;46.220;19.888;2023-05-29T01:56:34;16.03;91.08
72114;SHT31;59989;46.220;19.888;2023-05-29T01:59:38;16.01;91.07
72114;SHT31;59989;46.220;19.888;2023-05-29T02:02:40;16.03;91.00
72114;SHT31;59989;46.220;19.888;2023-05-29T02:05:43;16.00;91.12
72114;SHT31;59989;46.220;19.888;2023-05-29T02:08:46;15.97;91.14
72114;SHT31;59989;46.220;19.888;2023-05-29T02:11:49;16.00;91.10
72114;SHT31;59989;46.220;19.888;2023-05-29T02:14:52;16.00;90.69
72114;SHT31;59989;46.220;19.888;2023-05-29T02:17:55;16.00;90.63
72114;SHT31;59989;46.220;19.888;2023-05-29T02:20:57;16.04;90.59
72114;SHT31;59989;46.220;19.888;2023-05-29T02:24:02;16.11;90.73
72114;SHT31;59989;46.220;19.888;2023-05-29T02:27:05;16.14;90.83
72114;SHT31;59989;46.220;19.888;2023-05-29T02:30:09;16.15;90.87
72114;SHT31;59989;46.220;19.888;2023-05-29T02:33:12;16.17;90.84
72114;SHT31;59989;46.220;19.888;2023-05-29T02:36:14;16.20;91.17
72114;SHT31;59989;46.220;19.888;2023-05-29T02:39:18;16.17;91.47
72114;SHT31;59989;46.220;19.888;2023-05-29T02:42:21;16.15;91.49
72114;SHT31;59989;46.220;19.888;2023-05-29T02:45:24;16.11;91.58
72114;SHT31;59989;46.220;19.888;2023-05-29T02:48:28;16.10;91.47
72114;SHT31;59989;46.220;19.888;2023-05-29T02:51:31;16.04;91.55
72114;SHT31;59989;46.220;19.888;2023-05-29T02:54:34;16.10;91.79
72114;SHT31;59989;46.220;19.888;2023-05-29T02:57:38;16.11;91.72
72114;SHT31;59989;46.220;19.888;2023-05-29T03:00:41;16.07;91.75
72114;SHT31;59989;46.220;19.888;2023-05-29T03:03:43;16.10;91.88
72114;SHT31;59989;46.220;19.888;2023-05-29T03:06:47;16.10;91.87
72114;SHT31;59989;46.220;19.888;2023-05-29T03:09:49;16.11;91.72
72114;SHT31;59989;46.220;19.888;2023-05-29T03:12:52;16.10;91.60
72114;SHT31;59989;46.220;19.888;2023-05-29T03:15:56;16.11;91.44
72114;SHT31;59989;46.220;19.888;2023-05-29T03:19:00;16.10;91.13
72114;SHT31;59989;46.220;19.888;2023-05-29T03:22:03;16.12;91.19
72114;SHT31;59989;46.220;19.888;2023-05-29T03:25:09;16.12;91.21
72114;SHT31;59989;46.220;19.888;2023-05-29T03:28:12;16.12;91.47
72114;SHT31;59989;46.220;19.888;2023-05-29T03:31:14;16.18;91.46
72114;SHT31;59989;46.220;19.888;2023-05-29T03:34:18;16.26;91.48
72114;SHT31;59989;46.220;19.888;2023-05-29T03:37:28;16.38;91.52
72114;SHT31;59989;46.220;19.888;2023-05-29T03:40:31;16.44;91.20
72114;SHT31;59989;46.220;19.888;2023-05-29T03:43:33;16.52;90.69
72114;SHT31;59989;46.220;19.888;2023-05-29T03:46:36;16.56;90.20
72114;SHT31;59989;46.220;19.888;2023-05-29T03:49:39;16.58;89.85
72114;SHT31;59989;46.220;19.888;2023-05-29T03:52:42;16.58;90.34
72114;SHT31;59989;46.220;19.888;2023-05-29T03:55:45;16.63;90.58
72114;SHT31;59989;46.220;19.888;2023-05-29T03:58:48;16.63;90.50
72114;SHT31;59989;46.220;19.888;2023-05-29T04:01:52;16.63;89.97
72114;SHT31;59989;46.220;19.888;2023-05-29T04:04:55;16.68;89.14
72114;SHT31;59989;46.220;19.888;2023-05-29T04:07:57;16.65;88.64
72114;SHT31;59989;46.220;19.888;2023-05-29T04:11:16;16.72;88.75
72114;SHT31;59989;46.220;19.888;2023-05-29T04:14:19;16.81;88.82
72114;SHT31;59989;46.220;19.888;2023-05-29T04:17:22;16.89;88.41
72114;SHT31;59989;46.220;19.888;2023-05-29T04:20:24;16.96;88.43
72114;SHT31;59989;46.220;19.888;2023-05-29T04:23:28;17.04;88.72
72114;SHT31;59989;46.220;19.888;2023-05-29T04:26:31;17.10;88.56
72114;SHT31;59989;46.220;19.888;2023-05-29T04:29:35;17.20;88.20
72114;SHT31;59989;46.220;19.888;2023-05-29T04:32:38;17.28;87.80
72114;SHT31;59989;46.220;19.888;2023-05-29T04:35:42;17.48;87.40
72114;SHT31;59989;46.220;19.888;2023-05-29T04:38:46;17.61;86.50
72114;SHT31;59989;46.220;19.888;2023-05-29T04:41:50;17.61;86.25
72114;SHT31;59989;46.220;19.888;2023-05-29T04:44:56;17.59;86.17
72114;SHT31;59989;46.220;19.888;2023-05-29T04:47:59;17.64;86.42
72114;SHT31;59989;46.220;19.888;2023-05-29T04:51:03;17.71;86.15
72114;SHT31;59989;46.220;19.888;2023-05-29T04:54:06;17.64;85.28
72114;SHT31;59989;46.220;19.888;2023-05-29T04:57:10;17.65;85.34
72114;SHT31;59989;46.220;19.888;2023-05-29T05:00:14;17.64;85.07
72114;SHT31;59989;46.220;19.888;2023-05-29T05:03:19;17.64;84.75
72114;SHT31;59989;46.220;19.888;2023-05-29T05:06:22;17.71;84.86
72114;SHT31;59989;46.220;19.888;2023-05-29T05:09:25;17.65;84.08
72114;SHT31;59989;46.220;19.888;2023-05-29T05:12:29;17.64;83.76
72114;SHT31;59989;46.220;19.888;2023-05-29T05:15:34;17.67;84.72
72114;SHT31;59989;46.220;19.888;2023-05-29T05:18:37;17.74;84.86
72114;SHT31;59989;46.220;19.888;2023-05-29T05:21:42;17.74;84.59
72114;SHT31;59989;46.220;19.888;2023-05-29T05:24:45;17.88;85.02
72114;SHT31;59989;46.220;19.888;2023-05-29T05:27:47;17.85;84.51
72114;SHT31;59989;46.220;19.888;2023-05-29T05:30:51;17.96;84.29
72114;SHT31;59989;46.220;19.888;2023-05-29T05:33:54;18.02;83.18
72114;SHT31;59989;46.220;19.888;2023-05-29T05:36:58;18.12;83.19
72114;SHT31;59989;46.220;19.888;2023-05-29T05:40:01;18.17;81.83
72114;SHT31;59989;46.220;19.888;2023-05-29T05:43:05;18.09;82.21
72114;SHT31;59989;46.220;19.888;2023-05-29T05:46:28;18.22;82.62
72114;SHT31;59989;46.220;19.888;2023-05-29T05:49:31;18.41;82.34
72114;SHT31;59989;46.220;19.888;2023-05-29T05:52:34;18.54;81.18
72114;SHT31;59989;46.220;19.888;2023-05-29T05:55:36;18.69;80.50
72114;SHT31;59989;46.220;19.888;2023-05-29T05:58:39;18.74;78.93
72114;SHT31;59989;46.220;19.888;2023-05-29T06:01:42;18.99;78.88
72114;SHT31;59989;46.220;19.888;2023-05-29T06:04:44;19.15;78.94
72114;SHT31;59989;46.220;19.888;2023-05-29T06:07:47;19.39;78.58
72114;SHT31;59989;46.220;19.888;2023-05-29T06:10:50;19.53;78.04
72114;SHT31;59989;46.220;19.888;2023-05-29T06:13:53;19.50;77.61
72114;SHT31;59989;46.220;19.888;2023-05-29T06:17:03;19.51;77.35
72114;SHT31;59989;46.220;19.888;2023-05-29T06:20:06;19.88;77.02
72114;SHT31;59989;46.220;19.888;2023-05-29T06:23:13;19.97;77.24
72114;SHT31;59989;46.220;19.888;2023-05-29T06:26:16;20.02;76.62
72114;SHT31;59989;46.220;19.888;2023-05-29T06:29:18;20.29;75.81
72114;SHT31;59989;46.220;19.888;2023-05-29T06:32:21;20.48;74.34
72114;SHT31;59989;46.220;19.888;2023-05-29T06:35:25;20.48;75.03
72114;SHT31;59989;46.220;19.888;2023-05-29T06:38:29;20.66;75.65
72114;SHT31;59989;46.220;19.888;2023-05-29T06:41:32;20.52;76.29
72114;SHT31;59989;46.220;19.888;2023-05-29T06:44:35;20.15;76.40
72114;SHT31;59989;46.220;19.888;2023-05-29T06:47:38;20.43;77.28
72114;SHT31;59989;46.220;19.888;2023-05-29T06:50:41;20.65;76.26
72114;SHT31;59989;46.220;19.888;2023-05-29T06:54:04;20.53;77.61
72114;SHT31;59989;46.220;19.888;2023-05-29T06:57:08;20.84;76.41
72114;SHT31;59989;46.220;19.888;2023-05-29T07:00:13;21.08;74.99
72114;SHT31;59989;46.220;19.888;2023-05-29T07:03:25;21.27;74.46
72114;SHT31;59989;46.220;19.888;2023-05-29T07:06:30;21.39;74.10
72114;SHT31;59989;46.220;19.888;2023-05-29T07:09:33;21.25;74.68
72114;SHT31;59989;46.220;19.888;2023-05-29T07:12:37;21.41;75.07
72114;SHT31;59989;46.220;19.888;2023-05-29T07:15:39;21.23;73.35
72114;SHT31;59989;46.220;19.888;2023-05-29T07:18:42;21.25;73.32
72114;SHT31;59989;46.220;19.888;2023-05-29T07:21:46;21.37;73.41
72114;SHT31;59989;46.220;19.888;2023-05-29T07:24:49;21.69;72.79
72114;SHT31;59989;46.220;19.888;2023-05-29T07:27:52;21.73;71.10
72114;SHT31;59989;46.220;19.888;2023-05-29T07:30:55;21.63;70.45
72114;SHT31;59989;46.220;19.888;2023-05-29T07:33:58;21.67;70.37
72114;SHT31;59989;46.220;19.888;2023-05-29T07:37:04;21.65;70.40
72114;SHT31;59989;46.220;19.888;2023-05-29T07:40:09;21.55;71.44
72114;SHT31;59989;46.220;19.888;2023-05-29T07:43:50;21.99;70.59
72114;SHT31;59989;46.220;19.888;2023-05-29T07:46:55;21.73;71.38
72114;SHT31;59989;46.220;19.888;2023-05-29T07:50:08;21.81;71.66
72114;SHT31;59989;46.220;19.888;2023-05-29T07:53:12;21.82;72.38
72114;SHT31;59989;46.220;19.888;2023-05-29T07:56:15;21.92;71.58
72114;SHT31;59989;46.220;19.888;2023-05-29T07:59:19;22.02;70.38
72114;SHT31;59989;46.220;19.888;2023-05-29T08:02:23;21.97;71.08
72114;SHT31;59989;46.220;19.888;2023-05-29T08:05:49;21.88;70.82
72114;SHT31;59989;46.220;19.888;2023-05-29T08:08:53;21.79;71.35
72114;SHT31;59989;46.220;19.888;2023-05-29T08:11:56;21.83;71.71
72114;SHT31;59989;46.220;19.888;2023-05-29T08:15:03;21.44;71.77
72114;SHT31;59989;46.220;19.888;2023-05-29T08:18:05;21.81;71.36
72114;SHT31;59989;46.220;19.888;2023-05-29T08:21:09;22.00;70.95
72114;SHT31;59989;46.220;19.888;2023-05-29T08:24:12;21.99;71.11
72114;SHT31;59989;46.220;19.888;2023-05-29T08:27:15;21.92;71.73
72114;SHT31;59989;46.220;19.888;2023-05-29T08:30:17;21.99;71.66
72114;SHT31;59989;46.220;19.888;2023-05-29T08:33:21;22.54;70.81
72114;SHT31;59989;46.220;19.888;2023-05-29T08:36:24;22.48;69.77
72114;SHT31;59989;46.220;19.888;2023-05-29T08:39:27;22.75;68.94
72114;SHT31;59989;46.220;19.888;2023-05-29T08:42:33;22.62;69.29
72114;SHT31;59989;46.220;19.888;2023-05-29T08:45:42;22.85;67.66
72114;SHT31;59989;46.220;19.888;2023-05-29T08:48:48;23.19;68.10
72114;SHT31;59989;46.220;19.888;2023-05-29T08:52:15;23.39;64.99
72114;SHT31;59989;46.220;19.888;2023-05-29T08:55:18;23.51;66.82
72114;SHT31;59989;46.220;19.888;2023-05-29T08:58:21;23.45;66.12
72114;SHT31;59989;46.220;19.888;2023-05-29T09:01:25;23.71;66.46
72114;SHT31;59989;46.220;19.888;2023-05-29T09:04:28;23.58;65.11
72114;SHT31;59989;46.220;19.888;2023-05-29T09:07:34;23.34;65.99
72114;SHT31;59989;46.220;19.888;2023-05-29T09:10:36;23.43;66.12
72114;SHT31;59989;46.220;19.888;2023-05-29T09:13:56;23.63;66.12
72114;SHT31;59989;46.220;19.888;2023-05-29T09:17:00;23.95;64.83
72114;SHT31;59989;46.220;19.888;2023-05-29T09:20:03;23.81;65.08
72114;SHT31;59989;46.220;19.888;2023-05-29T09:23:12;23.57;65.93
72114;SHT31;59989;46.220;19.888;2023-05-29T09:26:15;23.57;66.93
72114;SHT31;59989;46.220;19.888;2023-05-29T09:29:18;23.51;66.36
72114;SHT31;59989;46.220;19.888;2023-05-29T09:32:21;23.39;66.46
72114;SHT31;59989;46.220;19.888;2023-05-29T09:35:24;23.24;67.24
72114;SHT31;59989;46.220;19.888;2023-05-29T09:38:27;22.99;67.00
72114;SHT31;59989;46.220;19.888;2023-05-29T09:41:49;22.61;68.47
72114;SHT31;59989;46.220;19.888;2023-05-29T09:44:52;22.44;69.30
72114;SHT31;59989;46.220;19.888;2023-05-29T09:47:55;22.64;68.84
72114;SHT31;59989;46.220;19.888;2023-05-29T09:50:58;22.43;68.61
72114;SHT31;59989;46.220;19.888;2023-05-29T09:54:13;22.37;70.35
72114;SHT31;59989;46.220;19.888;2023-05-29T09:57:17;22.41;69.79
72114;SHT31;59989;46.220;19.888;2023-05-29T10:00:20;22.55;70.49
72114;SHT31;59989;46.220;19.888;2023-05-29T10:03:24;22.73;69.38
72114;SHT31;59989;46.220;19.888;2023-05-29T10:06:27;22.65;69.16
72114;SHT31;59989;46.220;19.888;2023-05-29T10:09:32;22.85;68.76
72114;SHT31;59989;46.220;19.888;2023-05-29T10:12:38;23.18;69.18
72114;SHT31;59989;46.220;19.888;2023-05-29T10:15:45;23.33;68.14
72114;SHT31;59989;46.220;19.888;2023-05-29T10:18:55;23.19;66.46
72114;SHT31;59989;46.220;19.888;2023-05-29T10:22:01;23.34;65.84
72114;SHT31;59989;46.220;19.888;2023-05-29T10:25:05;23.19;63.70
72114;SHT31;59989;46.220;19.888;2023-05-29T10:28:08;23.24;65.04
72114;SHT31;59989;46.220;19.888;2023-05-29T10:31:20;23.74;63.94
72114;SHT31;59989;46.220;19.888;2023-05-29T10:34:39;24.95;62.94
72114;SHT31;59989;46.220;19.888;2023-05-29T10:37:46;25.31;61.48
72114;SHT31;59989;46.220;19.888;2023-05-29T10:40:50;25.45;58.15
72114;SHT31;59989;46.220;19.888;2023-05-29T10:44:00;25.24;58.53
72114;SHT31;59989;46.220;19.888;2023-05-29T10:47:05;25.39;58.93
72114;SHT31;59989;46.220;19.888;2023-05-29T10:50:09;25.76;57.52
72114;SHT31;59989;46.220;19.888;2023-05-29T10:53:23;25.52;56.25
72114;SHT31;59989;46.220;19.888;2023-05-29T10:56:28;25.30;56.33
72114;SHT31;59989;46.220;19.888;2023-05-29T10:59:36;24.73;57.06
72114;SHT31;59989;46.220;19.888;2023-05-29T11:02:39;25.01;57.18
72114;SHT31;59989;46.220;19.888;2023-05-29T11:06:02;24.67;56.00
72114;SHT31;59989;46.220;19.888;2023-05-29T11:12:32;25.24;54.92
72114;SHT31;59989;46.220;19.888;2023-05-29T11:15:36;25.34;54.20
72114;SHT31;59989;46.220;19.888;2023-05-29T11:18:44;25.42;53.46
72114;SHT31;59989;46.220;19.888;2023-05-29T11:22:08;25.21;54.37
72114;SHT31;59989;46.220;19.888;2023-05-29T11:25:14;25.61;52.79
72114;SHT31;59989;46.220;19.888;2023-05-29T11:28:17;25.85;51.76
72114;SHT31;59989;46.220;19.888;2023-05-29T11:31:20;26.62;50.46
72114;SHT31;59989;46.220;19.888;2023-05-29T11:34:28;27.17;50.46
72114;SHT31;59989;46.220;19.888;2023-05-29T11:37:31;27.57;49.61
72114;SHT31;59989;46.220;19.888;2023-05-29T11:40:37;27.55;50.90
72114;SHT31;59989;46.220;19.888;2023-05-29T11:43:40;26.86;49.85
72114;SHT31;59989;46.220;19.888;2023-05-29T11:46:43;25.48;53.21
72114;SHT31;59989;46.220;19.888;2023-05-29T11:49:45;24.81;53.56
72114;SHT31;59989;46.220;19.888;2023-05-29T11:52:48;24.86;54.46
72114;SHT31;59989;46.220;19.888;2023-05-29T11:55:50;24.69;53.55
72114;SHT31;59989;46.220;19.888;2023-05-29T11:58:54;25.08;51.40
72114;SHT31;59989;46.220;19.888;2023-05-29T12:02:02;24.67;53.84
72114;SHT31;59989;46.220;19.888;2023-05-29T12:05:06;24.49;55.40
72114;SHT31;59989;46.220;19.888;2023-05-29T12:08:12;23.75;56.26
72114;SHT31;59989;46.220;19.888;2023-05-29T12:11:23;23.66;57.80
72114;SHT31;59989;46.220;19.888;2023-05-29T12:14:25;23.74;58.48
72114;SHT31;59989;46.220;19.888;2023-05-29T12:17:28;23.73;59.38
72114;SHT31;59989;46.220;19.888;2023-05-29T12:20:33;23.63;58.67
72114;SHT31;59989;46.220;19.888;2023-05-29T12:23:37;23.53;58.34
72114;SHT31;59989;46.220;19.888;2023-05-29T12:26:42;23.30;59.41
72114;SHT31;59989;46.220;19.888;2023-05-29T12:29:44;22.99;59.81
72114;SHT31;59989;46.220;19.888;2023-05-29T12:32:49;23.02;60.83
72114;SHT31;59989;46.220;19.888;2023-05-29T12:35:52;22.98;60.94
72114;SHT31;59989;46.220;19.888;2023-05-29T12:38:55;22.96;60.88
72114;SHT31;59989;46.220;19.888;2023-05-29T12:42:00;22.88;59.62
72114;SHT31;59989;46.220;19.888;2023-05-29T12:45:02;22.79;61.27
72114;SHT31;59989;46.220;19.888;2023-05-29T12:48:09;22.79;61.17
72114;SHT31;59989;46.220;19.888;2023-05-29T12:51:13;22.69;62.51
72114;SHT31;59989;46.220;19.888;2023-05-29T12:54:16;22.69;63.33
72114;SHT31;59989;46.220;19.888;2023-05-29T12:57:19;22.71;62.68
72114;SHT31;59989;46.220;19.888;2023-05-29T13:00:23;22.67;62.52
72114;SHT31;59989;46.220;19.888;2023-05-29T13:03:25;22.68;62.38
72114;SHT31;59989;46.220;19.888;2023-05-29T13:06:28;22.62;62.77
72114;SHT31;59989;46.220;19.888;2023-05-29T13:09:30;22.62;63.57
72114;SHT31;59989;46.220;19.888;2023-05-29T13:12:34;22.52;63.20
72114;SHT31;59989;46.220;19.888;2023-05-29T13:15:37;22.60;64.43
72114;SHT31;59989;46.220;19.888;2023-05-29T13:18:40;22.55;64.03
72114;SHT31;59989;46.220;19.888;2023-05-29T13:21:43;22.55;63.77
72114;SHT31;59989;46.220;19.888;2023-05-29T13:24:51;22.60;63.91
72114;SHT31;59989;46.220;19.888;2023-05-29T13:27:53;22.58;64.12
72114;SHT31;59989;46.220;19.888;2023-05-29T13:30:56;22.64;64.66
72114;SHT31;59989;46.220;19.888;2023-05-29T13:33:59;22.61;63.31
72114;SHT31;59989;46.220;19.888;2023-05-29T13:37:01;22.55;63.18
72114;SHT31;59989;46.220;19.888;2023-05-29T13:40:05;22.62;63.63
72114;SHT31;59989;46.220;19.888;2023-05-29T13:43:08;22.73;64.20
72114;SHT31;59989;46.220;19.888;2023-05-29T13:46:12;22.67;64.30
72114;SHT31;59989;46.220;19.888;2023-05-29T13:49:15;22.65;65.54
72114;SHT31;59989;46.220;19.888;2023-05-29T13:52:17;22.75;66.14
72114;SHT31;59989;46.220;19.888;2023-05-29T13:55:20;22.82;66.25
72114;SHT31;59989;46.220;19.888;2023-05-29T13:58:22;22.88;67.42
72114;SHT31;59989;46.220;19.888;2023-05-29T14:01:25;22.84;66.22
72114;SHT31;59989;46.220;19.888;2023-05-29T14:04:31;22.99;66.90
72114;SHT31;59989;46.220;19.888;2023-05-29T14:07:34;23.02;65.54
72114;SHT31;59989;46.220;19.888;2023-05-29T14:10:36;23.13;64.91
72114;SHT31;59989;46.220;19.888;2023-05-29T14:13:39;23.24;65.44
72114;SHT31;59989;46.220;19.888;2023-05-29T14:16:42;23.37;63.71
72114;SHT31;59989;46.220;19.888;2023-05-29T14:19:45;23.46;62.98
72114;SHT31;59989;46.220;19.888;2023-05-29T14:22:49;23.67;63.62
72114;SHT31;59989;46.220;19.888;2023-05-29T14:25:52;23.73;62.04
72114;SHT31;59989;46.220;19.888;2023-05-29T14:28:55;23.79;62.13
72114;SHT31;59989;46.220;19.888;2023-05-29T14:32:14;23.64;61.23
72114;SHT31;59989;46.220;19.888;2023-05-29T14:35:17;23.70;61.84
72114;SHT31;59989;46.220;19.888;2023-05-29T14:38:19;23.70;62.26
72114;SHT31;59989;46.220;19.888;2023-05-29T14:41:22;23.56;60.44
72114;SHT31;59989;46.220;19.888;2023-05-29T14:44:25;23.67;60.41
72114;SHT31;59989;46.220;19.888;2023-05-29T14:47:28;23.77;60.28
72114;SHT31;59989;46.220;19.888;2023-05-29T14:50:30;23.88;60.62
72114;SHT31;59989;46.220;19.888;2023-05-29T14:53:35;24.28;60.11
72114;SHT31;59989;46.220;19.888;2023-05-29T14:56:37;24.30;59.19
72114;SHT31;59989;46.220;19.888;2023-05-29T14:59:40;24.51;59.85
72114;SHT31;59989;46.220;19.888;2023-05-29T15:02:42;24.40;59.69
72114;SHT31;59989;46.220;19.888;2023-05-29T15:05:45;24.01;60.03
72114;SHT31;59989;46.220;19.888;2023-05-29T15:08:48;23.89;61.48
72114;SHT31;59989;46.220;19.888;2023-05-29T15:11:53;23.81;61.83
72114;SHT31;59989;46.220;19.888;2023-05-29T15:14:55;23.75;61.73
72114;SHT31;59989;46.220;19.888;2023-05-29T15:17:58;23.91;62.64
72114;SHT31;59989;46.220;19.888;2023-05-29T15:21:02;23.77;62.45
72114;SHT31;59989;46.220;19.888;2023-05-29T15:24:05;23.78;63.76
72114;SHT31;59989;46.220;19.888;2023-05-29T15:27:08;23.77;65.01
72114;SHT31;59989;46.220;19.888;2023-05-29T15:30:15;23.77;64.41
72114;SHT31;59989;46.220;19.888;2023-05-29T15:33:18;23.91;65.16
72114;SHT31;59989;46.220;19.888;2023-05-29T15:36:21;23.97;64.28
72114;SHT31;59989;46.220;19.888;2023-05-29T15:39:24;23.94;65.07
72114;SHT31;59989;46.220;19.888;2023-05-29T15:42:28;24.01;64.16
72114;SHT31;59989;46.220;19.888;2023-05-29T15:45:30;24.04;63.67
72114;SHT31;59989;46.220;19.888;2023-05-29T15:48:33;24.22;63.84
72114;SHT31;59989;46.220;19.888;2023-05-29T15:51:35;24.39;63.82
72114;SHT31;59989;46.220;19.888;2023-05-29T15:54:43;24.29;63.20
72114;SHT31;59989;46.220;19.888;2023-05-29T15:57:45;24.14;63.51
72114;SHT31;59989;46.220;19.888;2023-05-29T16:00:50;24.16;62.13
72114;SHT31;59989;46.220;19.888;2023-05-29T16:03:53;24.16;62.30
72114;SHT31;59989;46.220;19.888;2023-05-29T16:06:55;24.08;63.50
72114;SHT31;59989;46.220;19.888;2023-05-29T16:09:58;23.88;63.17
72114;SHT31;59989;46.220;19.888;2023-05-29T16:13:00;23.54;63.95
72114;SHT31;59989;46.220;19.888;2023-05-29T16:16:03;23.57;63.65
72114;SHT31;59989;46.220;19.888;2023-05-29T16:19:06;23.45;64.87
72114;SHT31;59989;46.220;19.888;2023-05-29T16:22:10;23.39;65.65
72114;SHT31;59989;46.220;19.888;2023-05-29T16:25:12;23.36;65.86
72114;SHT31;59989;46.220;19.888;2023-05-29T16:28:15;23.27;65.51
72114;SHT31;59989;46.220;19.888;2023-05-29T16:31:18;23.19;66.92
72114;SHT31;59989;46.220;19.888;2023-05-29T16:34:20;23.16;66.82
72114;SHT31;59989;46.220;19.888;2023-05-29T16:37:23;23.13;67.24
72114;SHT31;59989;46.220;19.888;2023-05-29T16:40:26;23.06;66.84
72114;SHT31;59989;46.220;19.888;2023-05-29T16:43:29;22.96;67.74
72114;SHT31;59989;46.220;19.888;2023-05-29T16:46:32;22.92;68.16
72114;SHT31;59989;46.220;19.888;2023-05-29T16:49:34;22.91;68.56
72114;SHT31;59989;46.220;19.888;2023-05-29T16:52:37;22.85;70.00
72114;SHT31;59989;46.220;19.888;2023-05-29T16:55:39;22.81;69.17
72114;SHT31;59989;46.220;19.888;2023-05-29T16:58:43;22.71;70.35
72114;SHT31;59989;46.220;19.888;2023-05-29T17:01:45;22.62;68.98
72114;SHT31;59989;46.220;19.888;2023-05-29T17:04:48;22.60;68.95
72114;SHT31;59989;46.220;19.888;2023-05-29T17:07:51;22.47;69.20
72114;SHT31;59989;46.220;19.888;2023-05-29T17:10:53;22.24;61.65
72114;SHT31;59989;46.220;19.888;2023-05-29T17:13:56;21.99;60.14
72114;SHT31;59989;46.220;19.888;2023-05-29T17:16:58;21.78;60.07
72114;SHT31;59989;46.220;19.888;2023-05-29T17:20:01;21.66;59.98
72114;SHT31;59989;46.220;19.888;2023-05-29T17:23:04;21.49;60.40
72114;SHT31;59989;46.220;19.888;2023-05-29T17:26:06;21.35;60.88
72114;SHT31;59989;46.220;19.888;2023-05-29T17:29:09;21.24;61.84
72114;SHT31;59989;46.220;19.888;2023-05-29T17:32:12;21.08;62.47
72114;SHT31;59989;46.220;19.888;2023-05-29T17:35:14;21.00;63.15
72114;SHT31;59989;46.220;19.888;2023-05-29T17:38:17;20.93;64.22
72114;SHT31;59989;46.220;19.888;2023-05-29T17:41:19;20.81;65.19
72114;SHT31;59989;46.220;19.888;2023-05-29T17:44:22;20.70;66.27
72114;SHT31;59989;46.220;19.888;2023-05-29T17:47:24;20.57;67.36
72114;SHT31;59989;46.220;19.888;2023-05-29T17:50:27;20.48;68.63
72114;SHT31;59989;46.220;19.888;2023-05-29T17:53:30;20.30;69.76
72114;SHT31;59989;46.220;19.888;2023-05-29T17:56:33;20.21;70.14
72114;SHT31;59989;46.220;19.888;2023-05-29T17:59:35;20.07;71.11
72114;SHT31;59989;46.220;19.888;2023-05-29T18:02:38;19.91;71.76
72114;SHT31;59989;46.220;19.888;2023-05-29T18:05:41;19.84;72.45
72114;SHT31;59989;46.220;19.888;2023-05-29T18:08:43;19.69;73.47
72114;SHT31;59989;46.220;19.888;2023-05-29T18:11:46;19.60;74.15
72114;SHT31;59989;46.220;19.888;2023-05-29T18:14:49;19.49;74.47
72114;SHT31;59989;46.220;19.888;2023-05-29T18:17:52;19.39;75.36
72114;SHT31;59989;46.220;19.888;2023-05-29T18:20:55;19.29;75.74
72114;SHT31;59989;46.220;19.888;2023-05-29T18:23:58;19.20;75.83
72114;SHT31;59989;46.220;19.888;2023-05-29T18:27:00;19.09;75.91
72114;SHT31;59989;46.220;19.888;2023-05-29T18:30:05;19.01;75.99
72114;SHT31;59989;46.220;19.888;2023-05-29T18:33:09;18.91;76.09
72114;SHT31;59989;46.220;19.888;2023-05-29T18:36:12;18.92;76.55
72114;SHT31;59989;46.220;19.888;2023-05-29T18:39:15;18.82;76.68
72114;SHT31;59989;46.220;19.888;2023-05-29T18:42:17;18.69;77.16
72114;SHT31;59989;46.220;19.888;2023-05-29T18:45:20;18.58;77.49
72114;SHT31;59989;46.220;19.888;2023-05-29T18:48:23;18.53;77.43
72114;SHT31;59989;46.220;19.888;2023-05-29T18:51:25;18.44;76.98
72114;SHT31;59989;46.220;19.888;2023-05-29T18:54:28;18.40;77.24
72114;SHT31;59989;46.220;19.888;2023-05-29T18:57:31;18.36;76.92
72114;SHT31;59989;46.220;19.888;2023-05-29T19:00:34;18.32;77.21
72114;SHT31;59989;46.220;19.888;2023-05-29T19:03:37;18.27;76.87
72114;SHT31;59989;46.220;19.888;2023-05-29T19:06:39;18.27;76.82
72114;SHT31;59989;46.220;19.888;2023-05-29T19:09:42;18.27;76.85
72114;SHT31;59989;46.220;19.888;2023-05-29T19:12:45;18.18;77.96
72114;SHT31;59989;46.220;19.888;2023-05-29T19:15:48;18.09;79.07
72114;SHT31;59989;46.220;19.888;2023-05-29T19:18:50;18.02;78.38